Fairbanks, AK

01:36 PM AKDT die 26o April, anno 2017 (GMT -0800)
KAKFAIRB24 | | Change Station

Elev 540 ft 64.81 °N, 147.70 °W | Updated 1 minute ago

Overcast
Aequaliter Nubila
46.9 °F
Feels Like 47 °F
N
0.0
Ventus Variabilis Ventus from Magis Auster quam Zephyrus
Gusts 0.0 mph

Hodie
High -- | Low -- °F
--% Chance of Precip.
Yesterday
High -- | Low -- °F
Precip. -- in
Pressio 29.56 in
Visibilitas 10.0 milia passuum
Clouds Aequaliter Nubila 9000 ft
Frigus Venti 47 °F
Frigus in quo Ros apparet 32 °F
Umor 56%
Rainfall 0.00 in
Snow Depth Not available.
5:34 AM 10:05 PM
New, 0% visible
METAR PAFB 262058Z 22004KT 10SM OVC090 06/M03 A2954 RMK AO2A SLP010 T00591026 58008
Pressio 29.56 in
Visibilitas 10.0 milia passuum
Clouds Aequaliter Nubila 9000 ft
Frigus Venti 47 °F
Frigus in quo Ros apparet 32 °F
Umor 56%
Rainfall 0.00 in
Snow Depth Not available.
5:34 AM 10:05 PM
New, 0% visible
METAR PAFB 262058Z 22004KT 10SM OVC090 06/M03 A2954 RMK AO2A SLP010 T00591026 58008

Get Severe Weather Alerts

Thanks for signing up!

Be on the lookout for a verification email in your inbox.

You'll start receiving the daily forecast at 8 AM.

×

10-Day Weather Forecast

Almanac

Astronomy

Apr. 26, 2017 Rise Set
Actual Time
Civil Twilight
Nautical Twilight
Astronomical Twilight
Moon
Length Of Visible Light
Length of Day
Tomorrow will be .
, % of the Moon is Illuminated

Today's Extremes

State Highs State Lows

Community

WunderPhotos

WunderBlog® & News

Nearby

Air Quality

  Air Quality AQ Index Pollutant
Not available.

Snow Depth

Station Depth Elevation

Earthquake Activity

City Distance Mag. Time & Date
Minimum magnitude displayed is 2.5.

Coastal Water Temperatures

Locus Calor

Stations

Nearby Weather Stations

Station Location Temp Frigus Venti Frigus in quo Ros apparet Umor Ventus Precip. Elev Renovata Type
                   

Watches & Warnings

There are currently no watches in effect.